Terminal Aerodrome Forecast
Issued by NWS Shreveport, LA

Home | Current Version | Previous Version | Text Only | Print | Product List | Glossary On
Versions: 1 2 3 4 5 6 7 8 9 10 11 12 13 14 15 16 17 18 19 20 21
976
FTUS44 KSHV 291154
TAFGGG
TAF
KGGG 291154Z 2912/3012 16015G25KT P6SM BKN015 BKN025 OVC050
     FM291800 17020G30KT P6SM BKN030
      TEMPO 2919/2923 BKN035
     FM292300 17018G27KT P6SM VCTS BKN030 OVC040CB
     FM300100 17017G26KT P6SM -SHRA VCTS BKN025 OVC035CB
     FM300400 VRB20G30KT 3SM TSRA BKN015 OVC025CB=

USA.gov is the U.S. government's official web portal to all federal, state and local government web resources and services.